Time;durP1;ratioP1;P1;durP2;ratioP2;P2;SDS_P1;SDS_P2;PMS_P1;PMS_P2;Temp;Humidity;BMP_temperature;BMP_pressure;BME280_temperature;BME280_humidity;BME280_pressure;Samples;Min_cycle;Max_cycle;Signal;HPM_P1;HPM_P2
2022/01/30 00:02:03;;;;;;;31.07;12.77;;;;;;;-1.72;84.52;95171.63;5063390;28;20198;-75
2022/01/30 00:04:33;;;;;;;30.83;12.33;;;;;;;-1.78;85.02;95174.69;5066949;28;20189;-77
2022/01/30 00:07:00;;;;;;;25.77;12.47;;;;;;;-1.83;85.01;95174.28;5065897;28;20221;-75
2022/01/30 00:09:27;;;;;;;26.80;11.77;;;;;;;-2.03;85.74;95154.00;5064941;28;20232;-76
2022/01/30 00:11:58;;;;;;;24.73;10.77;;;;;;;-2.17;86.91;95164.53;5063474;28;20227;-77
2022/01/30 00:14:28;;;;;;;18.00;8.93;;;;;;;-2.31;87.62;95156.28;5068560;28;20612;-74
2022/01/30 00:17:01;;;;;;;16.37;8.13;;;;;;;-2.41;88.29;95154.63;5065438;28;20672;-76
2022/01/30 00:19:35;;;;;;;17.47;8.87;;;;;;;-2.28;87.87;95152.69;5067825;28;20710;-75
2022/01/30 00:22:15;;;;;;;21.57;9.00;;;;;;;-2.11;87.33;95149.56;5056062;28;20448;-75
2022/01/30 00:24:50;;;;;;;23.43;9.47;;;;;;;-2.04;87.05;95148.09;5063274;28;20213;-74
2022/01/30 00:27:21;;;;;;;28.00;11.30;;;;;;;-1.98;86.73;95139.13;5062810;28;20922;-75
2022/01/30 00:29:51;;;;;;;30.03;12.50;;;;;;;-1.96;86.56;95140.59;5059891;28;20209;-74
2022/01/30 00:32:19;;;;;;;25.83;11.73;;;;;;;-2.01;86.67;95136.84;5061094;28;20212;-74
2022/01/30 00:34:48;;;;;;;22.90;11.50;;;;;;;-2.00;86.21;95129.09;5058327;28;20238;-76
2022/01/30 00:37:16;;;;;;;23.17;10.80;;;;;;;-1.95;86.30;95136.31;5060253;28;20219;-74
2022/01/30 00:39:45;;;;;;;29.77;10.67;;;;;;;-2.00;86.41;95135.91;5057227;28;20338;-78
2022/01/30 00:42:14;;;;;;;27.20;11.23;;;;;;;-2.05;86.28;95126.09;5066312;28;20201;-77
2022/01/30 00:44:43;;;;;;;24.93;11.33;;;;;;;-2.02;85.82;95125.06;5061807;28;20205;-76
2022/01/30 00:47:13;;;;;;;26.07;10.27;;;;;;;-2.03;86.22;95131.06;5065280;28;20302;-77
2022/01/30 00:49:42;;;;;;;24.07;10.33;;;;;;;-2.03;86.12;95129.34;5060600;28;20202;-76
2022/01/30 00:52:16;;;;;;;31.80;10.83;;;;;;;-2.06;85.99;95119.41;5063000;28;20278;-76
2022/01/30 00:54:44;;;;;;;30.40;12.53;;;;;;;-2.06;86.31;95121.16;5061527;28;20193;-77
2022/01/30 00:57:13;;;;;;;29.37;11.17;;;;;;;-2.10;86.40;95109.59;5061360;28;20205;-77
2022/01/30 00:59:43;;;;;;;18.67;9.33;;;;;;;-2.28;87.35;95101.81;5076901;28;20707;-79
2022/01/30 01:02:11;;;;;;;14.57;6.97;;;;;;;-2.28;87.48;95100.03;5073076;28;20209;-77
2022/01/30 01:04:40;;;;;;;10.37;6.40;;;;;;;-2.22;86.53;95087.75;5063669;28;20652;-77
2022/01/30 01:07:14;;;;;;;16.67;7.80;;;;;;;-2.23;87.01;95086.16;5070533;28;20205;-76
2022/01/30 01:09:53;;;;;;;16.30;8.33;;;;;;;-2.29;87.19;95082.38;5069635;28;20204;-77
2022/01/30 01:23:24;;;;;;;18.53;8.67;;;;;;;-2.47;88.23;95089.00;5073359;28;20223;-77
2022/01/30 01:24:03;;;;;;;17.20;8.83;;;;;;;-2.54;88.82;95059.94;5067986;28;20205;-77
2022/01/30 01:26:34;;;;;;;19.73;9.03;;;;;;;-2.55;88.99;95064.22;5069305;28;20216;-77
2022/01/30 01:29:02;;;;;;;18.07;9.27;;;;;;;-2.55;88.52;95060.88;5068728;28;20334;-74
2022/01/30 01:31:30;;;;;;;18.93;9.17;;;;;;;-2.57;88.98;95044.94;5075866;28;20320;-75
2022/01/30 01:34:29;;;;;;;16.67;8.83;;;;;;;-2.50;88.53;95048.56;5073229;28;20320;-73
2022/01/30 01:36:58;;;;;;;19.70;7.90;;;;;;;-2.57;89.30;95042.41;5070976;28;20233;-73
2022/01/30 01:39:27;;;;;;;11.63;7.13;;;;;;;-2.67;89.61;95034.72;5076296;28;20201;-75
2022/01/30 01:41:58;;;;;;;22.43;9.87;;;;;;;-2.59;89.63;95032.34;5072477;28;20225;-73
2022/01/30 01:44:33;;;;;;;25.40;11.73;;;;;;;-2.60;89.21;95024.84;5078071;28;20205;-74
2022/01/30 01:47:02;;;;;;;29.30;10.87;;;;;;;-2.65;89.53;95026.94;5073303;28;20283;-74
2022/01/30 01:49:32;;;;;;;23.37;10.50;;;;;;;-2.75;90.04;95026.94;5074178;28;20292;-73
2022/01/30 01:54:45;;;;;;;23.43;11.33;;;;;;;-2.89;90.44;95014.56;5061939;28;20205;-74
2022/01/30 01:57:16;;;;;;;24.97;11.23;;;;;;;-2.80;90.70;95020.63;5072642;28;20201;-75
2022/01/30 01:59:45;;;;;;;27.07;11.87;;;;;;;-2.77;90.42;95013.53;5068081;28;20259;-75
2022/01/30 02:02:14;;;;;;;26.53;11.97;;;;;;;-2.79;90.67;94997.59;5074614;28;20829;-76
2022/01/30 02:04:43;;;;;;;26.40;12.03;;;;;;;-2.73;90.66;95001.38;5073496;28;20209;-75
2022/01/30 02:10:11;;;;;;;27.07;12.00;;;;;;;-2.78;90.99;95006.84;5044284;28;20283;-74
2022/01/30 02:12:47;;;;;;;28.47;12.13;;;;;;;-2.87;90.54;95015.25;5072534;28;20222;-73
2022/01/30 02:15:34;;;;;;;23.10;10.23;;;;;;;-2.97;91.23;95015.19;5070541;28;20216;-74
2022/01/30 02:26:17;;;;;;;18.87;8.90;;;;;;;-3.14;91.86;95020.06;5076522;28;20216;-73
2022/01/30 02:28:45;;;;;;;28.53;10.90;;;;;;;-3.12;92.02;95005.50;5071349;28;20200;-74
2022/01/30 02:31:19;;;;;;;20.00;9.57;;;;;;;-3.13;91.37;94997.06;5078451;28;20196;-73
2022/01/30 02:33:47;;;;;;;24.77;10.40;;;;;;;-3.11;91.68;94989.31;5072391;28;20239;-74
2022/01/30 02:36:15;;;;;;;23.97;10.20;;;;;;;-3.07;91.29;94980.50;5072123;28;20197;-73
2022/01/30 02:38:44;;;;;;;25.90;11.10;;;;;;;-3.05;91.23;94988.81;5074592;28;20757;-74
2022/01/30 02:41:13;;;;;;;17.67;8.87;;;;;;;-3.09;90.89;94975.53;5073231;28;20225;-73
2022/01/30 02:43:54;;;;;;;18.97;8.60;;;;;;;-3.10;91.44;94966.34;5076198;28;20213;-74
2022/01/30 02:46:28;;;;;;;18.20;8.07;;;;;;;-3.11;90.43;94962.16;5068178;28;20215;-74
2022/01/30 02:48:59;;;;;;;16.43;8.10;;;;;;;-3.07;90.22;94960.19;5073336;28;20245;-74
2022/01/30 02:51:34;;;;;;;18.83;8.80;;;;;;;-3.14;90.26;94949.72;5068970;28;20197;-74
2022/01/30 02:54:07;;;;;;;16.20;9.40;;;;;;;-3.13;89.87;94968.31;5079015;28;20223;-74
2022/01/30 02:56:37;;;;;;;27.03;10.60;;;;;;;-3.17;90.69;94954.25;5072803;28;20754;-74
2022/01/30 02:59:06;;;;;;;18.50;8.83;;;;;;;-3.47;91.55;94947.44;5060257;28;20550;-74
2022/01/30 03:01:34;;;;;;;16.90;8.30;;;;;;;-3.59;93.25;94943.38;5061152;28;20225;-73
2022/01/30 03:04:02;;;;;;;20.23;8.60;;;;;;;-3.68;93.53;94923.78;5058736;28;20590;-73
2022/01/30 03:06:31;;;;;;;19.23;8.67;;;;;;;-3.58;93.38;94930.53;5054711;28;20201;-74
2022/01/30 03:08:59;;;;;;;16.10;8.10;;;;;;;-3.57;93.21;94931.34;5062939;28;20208;-74
2022/01/30 03:11:30;;;;;;;20.10;9.10;;;;;;;-3.47;92.58;94942.38;5056787;28;20629;-74
2022/01/30 03:13:58;;;;;;;21.23;9.80;;;;;;;-3.42;92.81;94944.50;5060351;28;20575;-73
2022/01/30 03:16:26;;;;;;;17.27;9.50;;;;;;;-3.36;92.27;94949.91;5058220;28;20227;-73
2022/01/30 03:18:54;;;;;;;21.67;9.43;;;;;;;-3.42;92.02;94955.47;5062639;28;20232;-73
2022/01/30 03:21:23;;;;;;;18.23;8.27;;;;;;;-3.41;92.04;94949.47;5055026;28;20225;-73
2022/01/30 03:23:54;;;;;;;17.70;8.93;;;;;;;-3.42;92.21;94947.06;5060379;28;20209;-73
2022/01/30 03:26:22;;;;;;;20.17;9.77;;;;;;;-3.46;92.59;94952.38;5059347;28;20231;-73
2022/01/30 03:28:54;;;;;;;18.27;9.37;;;;;;;-3.46;92.95;94941.41;5059769;28;20217;-73
2022/01/30 03:31:23;;;;;;;17.33;8.97;;;;;;;-3.39;92.50;94949.34;5060238;28;20194;-73
2022/01/30 03:33:51;;;;;;;25.90;11.80;;;;;;;-3.41;92.82;94948.66;5056753;28;20240;-74
2022/01/30 03:36:20;;;;;;;21.00;10.93;;;;;;;-3.37;92.97;94945.75;5061122;28;20197;-75
2022/01/30 03:38:48;;;;;;;23.63;10.87;;;;;;;-3.42;92.71;94949.59;5060220;28;20267;-75
2022/01/30 03:41:15;;;;;;;21.27;10.17;;;;;;;-3.39;92.90;94959.50;5061626;28;21188;-73
2022/01/30 03:43:43;;;;;;;20.53;9.40;;;;;;;-3.36;92.68;94952.44;5057612;28;20584;-74
2022/01/30 03:46:14;;;;;;;17.50;8.10;;;;;;;-3.31;92.14;94950.31;5065666;28;20209;-74
2022/01/30 03:48:41;;;;;;;17.40;8.00;;;;;;;-3.24;92.24;94955.69;5056902;28;20201;-74
2022/01/30 03:51:10;;;;;;;24.53;9.07;;;;;;;-3.19;91.48;94958.66;5065271;28;20271;-73
2022/01/30 03:53:39;;;;;;;16.17;8.73;;;;;;;-3.30;91.89;94964.63;5060373;28;20676;-73
2022/01/30 03:56:08;;;;;;;26.97;10.10;;;;;;;-3.31;91.95;94949.50;5066085;28;20206;-74
2022/01/30 03:58:36;;;;;;;23.23;10.33;;;;;;;-3.30;92.12;94940.97;5058771;28;20201;-73
2022/01/30 04:01:04;;;;;;;22.87;11.93;;;;;;;-3.25;91.76;94938.84;5062947;28;20253;-75
2022/01/30 04:03:36;;;;;;;24.43;11.47;;;;;;;-3.41;92.33;94924.09;5057748;28;20205;-74
2022/01/30 04:06:05;;;;;;;22.37;11.37;;;;;;;-3.31;92.26;94924.09;5062057;28;20202;-74
2022/01/30 04:08:33;;;;;;;23.53;11.43;;;;;;;-3.30;92.13;94925.72;5063748;28;20244;-75
2022/01/30 04:11:01;;;;;;;26.23;10.83;;;;;;;-3.35;91.69;94905.00;5059841;28;20716;-74
2022/01/30 04:13:30;;;;;;;23.67;11.87;;;;;;;-3.52;91.94;94916.56;5062014;28;20703;-73
2022/01/30 04:15:58;;;;;;;28.00;11.83;;;;;;;-3.52;92.69;94924.94;5057875;28;20206;-74
2022/01/30 04:18:26;;;;;;;26.90;12.47;;;;;;;-3.54;92.44;94903.97;5067973;28;20255;-74
2022/01/30 04:20:56;;;;;;;27.63;12.60;;;;;;;-3.61;92.48;94899.53;5058918;28;20234;-73
2022/01/30 04:23:24;;;;;;;29.60;12.97;;;;;;;-3.61;93.71;94885.06;5065878;28;20254;-73
2022/01/30 04:25:53;;;;;;;30.33;12.23;;;;;;;-3.48;93.60;94883.16;5059898;28;20270;-73
2022/01/30 04:28:23;;;;;;;26.80;13.03;;;;;;;-3.45;92.03;94866.84;5066210;28;20205;-73
2022/01/30 04:30:52;;;;;;;32.93;12.47;;;;;;;-3.28;91.27;94861.16;5060012;28;20229;-74
2022/01/30 04:33:22;;;;;;;27.60;12.90;;;;;;;-3.26;91.91;94861.03;5063404;28;20201;-73
2022/01/30 04:35:50;;;;;;;27.10;12.47;;;;;;;-3.18;91.78;94856.09;5058478;28;20283;-73
2022/01/30 04:38:29;;;;;;;33.37;12.93;;;;;;;-3.17;91.39;94845.81;5062500;28;20205;-73
2022/01/30 04:52:20;;;;;;;28.73;12.47;;;;;;;-2.93;90.16;94843.72;5061847;28;20273;-76
2022/01/30 04:55:46;;;;;;;31.60;12.47;;;;;;;-2.83;90.35;94858.19;5063779;28;20226;-76
2022/01/30 04:58:14;;;;;;;25.27;11.47;;;;;;;-2.83;90.28;94883.59;5060091;28;20274;-76
2022/01/30 05:01:00;;;;;;;25.87;10.93;;;;;;;-2.73;89.76;94889.50;5063266;28;20205;-76
2022/01/30 05:03:38;;;;;;;34.60;12.53;;;;;;;-2.63;89.64;94890.31;5063949;28;20201;-77
2022/01/30 05:06:10;;;;;;;32.70;12.30;;;;;;;-2.56;88.88;94886.28;5060608;28;20212;-76
2022/01/30 05:08:39;;;;;;;27.43;12.17;;;;;;;-2.56;88.49;94855.78;5062226;28;20201;-77
2022/01/30 05:11:09;;;;;;;24.43;12.07;;;;;;;-2.50;88.40;94850.97;5057084;28;20584;-77
2022/01/30 05:13:42;;;;;;;34.13;14.10;;;;;;;-2.66;88.08;94835.47;5064304;28;20197;-76
2022/01/30 05:16:12;;;;;;;30.50;14.57;;;;;;;-2.71;89.08;94829.16;5057610;28;21228;-77
2022/01/30 05:18:40;;;;;;;32.77;13.90;;;;;;;-2.75;88.78;94823.53;5064749;28;20204;-77
2022/01/30 05:21:09;;;;;;;32.80;12.77;;;;;;;-2.74;89.14;94804.78;5061746;28;20316;-77
2022/01/30 05:23:38;;;;;;;23.03;12.13;;;;;;;-2.74;89.42;94792.06;5062862;28;20237;-76
2022/01/30 05:26:09;;;;;;;22.23;11.50;;;;;;;-2.74;89.52;94781.91;5066406;28;20205;-77
2022/01/30 05:28:38;;;;;;;30.27;12.90;;;;;;;-2.66;89.89;94779.50;5062209;28;20205;-77
2022/01/30 05:31:06;;;;;;;32.30;13.73;;;;;;;-2.62;90.26;94782.56;5060018;28;20600;-75
2022/01/30 05:33:35;;;;;;;29.13;14.03;;;;;;;-2.59;90.26;94808.53;5062553;28;20217;-75
2022/01/30 05:36:04;;;;;;;28.57;14.07;;;;;;;-2.46;90.46;94803.19;5064042;28;20284;-75
2022/01/30 05:38:33;;;;;;;29.57;13.87;;;;;;;-2.40;90.16;94803.44;5059223;28;20213;-75
2022/01/30 05:41:03;;;;;;;34.40;12.87;;;;;;;-2.32;90.62;94810.41;5064107;28;20669;-74
2022/01/30 05:43:35;;;;;;;29.90;14.17;;;;;;;-2.30;90.42;94834.75;5052355;28;20212;-74
2022/01/30 05:46:12;;;;;;;28.10;13.73;;;;;;;-2.16;90.30;94855.63;5061817;28;20205;-75
2022/01/30 05:48:42;;;;;;;25.23;12.63;;;;;;;-2.09;89.36;94854.97;5057868;28;20672;-76
2022/01/30 05:51:11;;;;;;;27.97;13.27;;;;;;;-2.06;89.14;94843.69;5063681;28;20212;-76
2022/01/30 05:53:41;;;;;;;24.03;12.77;;;;;;;-2.01;89.25;94841.53;5063165;28;20205;-76
2022/01/30 05:56:11;;;;;;;23.63;11.77;;;;;;;-2.09;89.08;94811.69;5060973;28;20233;-75
2022/01/30 05:58:42;;;;;;;23.33;10.93;;;;;;;-2.05;88.03;94800.28;5061677;28;20204;-75
2022/01/30 06:01:10;;;;;;;20.77;11.27;;;;;;;-2.09;87.53;94798.97;5059582;28;20977;-76
2022/01/30 06:03:40;;;;;;;24.50;11.40;;;;;;;-1.99;86.79;94826.94;5062562;28;20307;-76
2022/01/30 06:06:08;;;;;;;21.23;11.27;;;;;;;-2.01;87.20;94816.09;5057787;28;20252;-76
2022/01/30 06:08:45;;;;;;;30.30;14.63;;;;;;;-2.09;87.17;94795.63;5060870;28;20668;-75
2022/01/30 06:11:13;;;;;;;31.40;13.90;;;;;;;-2.14;87.89;94796.03;5057329;28;20197;-76
2022/01/30 06:13:43;;;;;;;33.27;13.97;;;;;;;-2.07;88.51;94783.53;5064852;28;20225;-75
2022/01/30 06:16:12;;;;;;;32.90;14.40;;;;;;;-2.08;88.17;94787.03;5056578;28;20299;-75
2022/01/30 06:18:40;;;;;;;39.37;14.40;;;;;;;-2.01;88.78;94783.00;5062478;28;20201;-72
2022/01/30 06:21:09;;;;;;;27.10;14.13;;;;;;;-1.93;89.08;94753.34;5053923;28;20264;-72
2022/01/30 06:23:41;;;;;;;29.13;13.80;;;;;;;-1.89;88.86;94752.13;5060474;28;20293;-71
2022/01/30 06:26:09;;;;;;;29.57;13.63;;;;;;;-1.91;89.13;94764.22;5060060;28;20206;-71
2022/01/30 06:28:36;;;;;;;31.23;13.50;;;;;;;-1.79;89.04;94786.00;5059553;28;20209;-71
2022/01/30 06:31:05;;;;;;;26.03;12.50;;;;;;;-1.74;88.71;94783.03;5057157;28;20255;-70
2022/01/30 06:33:34;;;;;;;31.80;13.03;;;;;;;-1.63;88.04;94770.13;5056630;28;20210;-72
2022/01/30 06:36:02;;;;;;;30.70;13.27;;;;;;;-1.57;87.91;94754.28;5062616;28;20206;-73
2022/01/30 06:38:31;;;;;;;21.43;12.07;;;;;;;-1.48;87.98;94753.44;5053024;28;20206;-74
2022/01/30 06:40:59;;;;;;;22.27;11.47;;;;;;;-1.43;87.28;94769.09;5061375;28;20209;-74
2022/01/30 06:43:27;;;;;;;23.60;11.80;;;;;;;-1.32;85.42;94773.16;5053908;28;20671;-72
2022/01/30 06:45:56;;;;;;;26.60;13.33;;;;;;;-1.38;84.97;94786.47;5061728;28;20594;-73
2022/01/30 06:48:25;;;;;;;22.87;12.67;;;;;;;-1.31;85.22;94810.47;5056436;28;20201;-73
2022/01/30 06:50:54;;;;;;;27.53;13.07;;;;;;;-1.29;85.25;94818.75;5061661;28;20210;-74
2022/01/30 06:53:23;;;;;;;24.10;12.50;;;;;;;-1.34;85.75;94785.25;5054644;28;20212;-73
2022/01/30 06:55:50;;;;;;;24.80;12.67;;;;;;;-1.39;86.46;94785.69;5059212;28;20614;-71
2022/01/30 06:58:18;;;;;;;23.00;11.60;;;;;;;-1.35;87.02;94770.91;5059425;28;20208;-72
2022/01/30 07:00:47;;;;;;;21.60;10.97;;;;;;;-1.28;86.72;94774.50;5058175;28;20206;-72
2022/01/30 07:03:14;;;;;;;32.23;12.80;;;;;;;-1.21;86.77;94775.50;5059164;28;21062;-73
2022/01/30 07:05:45;;;;;;;24.50;13.47;;;;;;;-1.09;87.14;94768.47;5055881;28;20249;-72
2022/01/30 07:08:13;;;;;;;27.67;13.30;;;;;;;-1.06;86.63;94775.81;5063983;28;20209;-72
2022/01/30 07:10:42;;;;;;;27.53;12.77;;;;;;;-1.01;85.45;94761.69;5055981;28;20289;-72
2022/01/30 07:13:12;;;;;;;28.10;13.93;;;;;;;-0.95;84.88;94768.78;5066173;28;20193;-73
2022/01/30 07:15:42;;;;;;;26.37;14.33;;;;;;;-0.92;85.19;94754.91;5056968;28;20237;-73
2022/01/30 07:18:12;;;;;;;26.43;12.33;;;;;;;-0.86;84.75;94767.09;5064764;28;20656;-73
2022/01/30 07:20:40;;;;;;;22.83;12.33;;;;;;;-0.81;84.24;94767.47;5060447;28;20239;-72
2022/01/30 07:23:11;;;;;;;25.07;12.63;;;;;;;-0.77;84.15;94786.63;5064465;28;20315;-75
2022/01/30 07:25:40;;;;;;;24.13;12.70;;;;;;;-0.67;84.44;94780.53;5060135;28;20208;-76
2022/01/30 07:28:09;;;;;;;25.53;11.97;;;;;;;-0.69;83.08;94787.50;5063039;28;20214;-75
2022/01/30 07:30:37;;;;;;;31.67;12.67;;;;;;;-0.69;84.20;94792.59;5065278;28;20205;-77
2022/01/30 07:33:05;;;;;;;20.37;11.80;;;;;;;-0.61;83.36;94792.66;5063996;28;20210;-72
2022/01/30 07:35:37;;;;;;;31.83;13.80;;;;;;;-0.52;82.84;94798.66;5068950;28;20237;-72
2022/01/30 07:38:06;;;;;;;29.00;13.17;;;;;;;-0.47;82.64;94795.66;5060315;28;20250;-71
2022/01/30 07:40:37;;;;;;;28.43;13.60;;;;;;;-0.35;82.00;94813.16;5063096;28;20225;-71
2022/01/30 07:43:05;;;;;;;25.37;12.73;;;;;;;-0.22;81.82;94808.47;5057778;28;20230;-71
2022/01/30 07:45:33;;;;;;;32.37;13.07;;;;;;;-0.12;81.36;94795.59;5067240;28;20205;-72
2022/01/30 07:48:02;;;;;;;29.33;13.93;;;;;;;-0.10;81.03;94791.94;5057686;28;20272;-71
2022/01/30 07:50:30;;;;;;;25.07;12.90;;;;;;;-0.17;79.99;94797.78;5061157;28;20202;-71
2022/01/30 07:52:58;;;;;;;28.40;12.80;;;;;;;-0.22;80.06;94797.44;5060791;28;20201;-72
2022/01/30 07:55:27;;;;;;;23.73;11.93;;;;;;;-0.31;80.28;94788.91;5064229;28;20283;-71
2022/01/30 07:57:56;;;;;;;26.53;12.33;;;;;;;-0.42;80.76;94781.50;5059978;28;20206;-71
2022/01/30 08:00:25;;;;;;;30.13;13.03;;;;;;;-0.49;80.84;94774.59;5063406;28;20292;-73
2022/01/30 08:02:54;;;;;;;22.40;11.77;;;;;;;-0.52;81.00;94767.25;5058695;28;20229;-73
2022/01/30 08:05:23;;;;;;;26.90;12.00;;;;;;;-0.62;80.98;94759.66;5059785;28;20210;-72
2022/01/30 08:07:50;;;;;;;26.63;12.17;;;;;;;-0.53;81.31;94756.22;5063176;28;20274;-72
2022/01/30 08:10:18;;;;;;;23.40;12.40;;;;;;;-0.39;81.34;94739.56;5060418;28;20209;-72
2022/01/30 08:12:46;;;;;;;24.50;12.00;;;;;;;-0.22;81.51;94741.28;5063554;28;20198;-71
2022/01/30 08:15:15;;;;;;;21.70;11.30;;;;;;;-0.01;80.01;94737.44;5060030;28;20282;-71
2022/01/30 08:17:43;;;;;;;28.97;11.63;;;;;;;0.17;78.60;94728.88;5065980;28;20319;-73
2022/01/30 08:20:12;;;;;;;30.00;12.03;;;;;;;0.35;78.09;94744.91;5057524;28;21498;-71
2022/01/30 08:22:49;;;;;;;28.97;12.60;;;;;;;0.49;77.40;94742.56;5064623;28;20228;-71
2022/01/30 08:25:19;;;;;;;24.80;11.63;;;;;;;0.58;77.06;94756.19;5056979;28;20218;-72
2022/01/30 08:27:47;;;;;;;25.97;11.83;;;;;;;0.67;77.44;94749.34;5061778;28;20211;-73
2022/01/30 08:30:19;;;;;;;25.77;12.87;;;;;;;0.70;76.33;94757.50;5062695;28;20331;-71
2022/01/30 08:32:48;;;;;;;24.83;12.83;;;;;;;0.69;75.20;94747.44;5060654;28;20213;-72
2022/01/30 08:35:18;;;;;;;33.30;13.40;;;;;;;0.56;75.35;94760.66;5065362;28;20249;-72
2022/01/30 08:37:46;;;;;;;23.73;12.50;;;;;;;0.43;76.09;94752.63;5058942;28;20206;-72
2022/01/30 08:40:17;;;;;;;28.83;12.93;;;;;;;0.18;75.96;94733.03;5067296;28;20210;-72
2022/01/30 08:42:47;;;;;;;26.50;12.70;;;;;;;0.17;77.14;94731.44;5056804;28;20688;-71
2022/01/30 08:45:19;;;;;;;28.87;12.97;;;;;;;0.17;76.63;94734.81;5070740;28;20737;-80
2022/01/30 08:47:50;;;;;;;31.17;14.33;;;;;;;0.06;77.36;94739.38;5068926;28;20590;-80
2022/01/30 08:50:20;;;;;;;30.30;14.27;;;;;;;0.15;76.60;94752.00;5073195;28;20213;-81
2022/01/30 08:52:48;;;;;;;29.73;13.83;;;;;;;0.13;76.65;94737.78;5072366;28;20201;-80
2022/01/30 08:55:17;;;;;;;34.77;13.73;;;;;;;0.21;76.86;94737.81;5076489;28;20314;-82
2022/01/30 08:57:46;;;;;;;28.13;14.17;;;;;;;0.31;77.27;94736.78;5071690;28;20198;-80
2022/01/30 09:00:16;;;;;;;30.30;14.03;;;;;;;0.36;76.86;94751.63;5071615;28;20213;-81
2022/01/30 09:02:46;;;;;;;31.07;14.90;;;;;;;0.39;77.43;94748.78;5077992;28;20257;-82
2022/01/30 09:05:17;;;;;;;27.70;14.93;;;;;;;0.71;77.09;94756.56;5075886;28;20198;-84
2022/01/30 09:07:44;;;;;;;33.03;15.60;;;;;;;0.91;76.26;94752.78;5075847;28;20201;-82
2022/01/30 09:10:13;;;;;;;27.83;13.63;;;;;;;1.21;75.57;94756.50;5071449;28;20212;-83
2022/01/30 09:12:41;;;;;;;34.83;14.80;;;;;;;1.45;74.02;94741.16;5071332;28;20206;-82
2022/01/30 09:15:14;;;;;;;32.13;13.37;;;;;;;1.80;73.55;94752.00;5073699;28;20306;-81
2022/01/30 09:17:45;;;;;;;31.60;14.50;;;;;;;2.09;73.19;94752.28;5071359;28;20206;-81
2022/01/30 09:20:16;;;;;;;34.73;14.63;;;;;;;2.18;70.45;94741.84;5069619;28;20966;-81
2022/01/30 09:22:44;;;;;;;34.40;15.03;;;;;;;2.38;69.23;94760.22;5072481;28;20332;-83
2022/01/30 09:25:12;;;;;;;35.93;15.40;;;;;;;2.53;68.30;94758.56;5074856;28;20199;-81
2022/01/30 09:27:40;;;;;;;29.80;14.33;;;;;;;2.51;68.39;94742.53;5072393;28;20270;-82
2022/01/30 09:30:10;;;;;;;34.60;15.57;;;;;;;2.51;68.48;94731.50;5068385;28;20203;-80
2022/01/30 09:32:38;;;;;;;29.07;14.70;;;;;;;2.40;68.41;94731.84;5073795;28;20209;-81
2022/01/30 09:35:09;;;;;;;30.90;14.97;;;;;;;2.45;68.87;94727.03;5072751;28;20243;-89
2022/01/30 09:37:38;;;;;;;30.67;14.57;;;;;;;2.53;68.31;94706.47;5073616;28;20201;-90
2022/01/30 09:40:09;;;;;;;26.67;13.67;;;;;;;2.25;67.68;94685.63;5073782;28;20208;-90
2022/01/30 09:42:37;;;;;;;31.80;13.97;;;;;;;2.12;67.75;94691.25;5077526;28;20227;-90
2022/01/30 09:45:06;;;;;;;29.30;13.40;;;;;;;2.12;69.51;94685.31;5075045;28;20656;-90
2022/01/30 09:47:36;;;;;;;29.63;13.53;;;;;;;2.88;67.53;94669.25;5072699;28;20200;-81
2022/01/30 09:50:07;;;;;;;30.07;13.83;;;;;;;4.28;62.46;94676.13;5072156;28;20701;-80
2022/01/30 09:52:39;;;;;;;25.70;13.23;;;;;;;5.51;58.74;94667.28;5072330;28;20283;-81
2022/01/30 09:55:09;;;;;;;28.00;12.93;;;;;;;6.70;55.57;94673.97;5069108;28;20194;-80
2022/01/30 09:57:38;;;;;;;30.83;13.33;;;;;;;7.97;52.89;94652.22;5069818;28;20193;-81
2022/01/30 10:00:08;;;;;;;26.30;12.90;;;;;;;9.40;49.00;94651.84;5069543;28;20215;-81
2022/01/30 10:02:36;;;;;;;24.77;12.70;;;;;;;10.42;46.44;94649.53;5070541;28;20228;-82
2022/01/30 10:05:05;;;;;;;35.53;13.80;;;;;;;11.13;44.63;94638.47;5071082;28;20208;-81
2022/01/30 10:07:43;;;;;;;31.10;15.00;;;;;;;12.19;42.24;94636.59;5063271;28;20193;-81
2022/01/30 10:10:16;;;;;;;31.30;15.30;;;;;;;13.16;39.09;94629.66;5073382;28;20284;-75
2022/01/30 10:13:16;;;;;;;26.97;14.50;;;;;;;14.06;35.58;94629.53;5073241;28;20259;-81
2022/01/30 10:15:56;;;;;;;30.70;15.03;;;;;;;14.19;34.61;94624.78;5064055;28;20213;-82
2022/01/30 10:18:26;;;;;;;22.83;13.90;;;;;;;15.18;32.79;94648.25;5070450;28;20194;-81
2022/01/30 10:20:55;;;;;;;33.40;14.67;;;;;;;15.61;31.16;94653.41;5069977;28;20648;-82
2022/01/30 10:23:35;;;;;;;28.10;15.70;;;;;;;15.88;30.59;94666.47;5073135;28;20224;-82
2022/01/30 10:26:08;;;;;;;24.37;14.67;;;;;;;16.89;28.65;94662.69;5069077;28;20197;-81
2022/01/30 10:28:37;;;;;;;27.70;14.53;;;;;;;16.29;28.62;94649.22;5072721;28;20677;-81
2022/01/30 10:31:10;;;;;;;28.77;15.50;;;;;;;16.04;29.18;94641.19;5069064;28;20201;-81
2022/01/30 10:33:45;;;;;;;38.10;15.03;;;;;;;15.65;29.01;94615.19;5067955;28;20189;-81
2022/01/30 10:36:15;;;;;;;29.40;15.20;;;;;;;15.95;29.43;94625.13;5069659;28;20215;-82
2022/01/30 10:38:51;;;;;;;30.93;15.33;;;;;;;16.50;28.54;94621.25;5074532;28;20260;-82
2022/01/30 10:41:23;;;;;;;34.50;15.00;;;;;;;16.94;28.13;94625.16;5070452;28;20196;-82
2022/01/30 10:43:56;;;;;;;31.57;14.90;;;;;;;16.88;27.96;94619.09;5068877;28;20593;-81
2022/01/30 10:46:26;;;;;;;38.97;13.60;;;;;;;16.03;27.91;94587.16;5070987;28;20527;-88
2022/01/30 10:48:56;;;;;;;29.37;14.87;;;;;;;16.28;28.08;94582.84;5072844;28;20229;-88
2022/01/30 10:51:25;;;;;;;32.70;13.47;;;;;;;16.48;28.18;94573.50;5075276;28;20213;-88
2022/01/30 10:53:57;;;;;;;22.17;13.93;;;;;;;16.46;27.50;94573.75;5072165;28;20549;-88
2022/01/30 10:56:27;;;;;;;29.10;14.03;;;;;;;16.73;27.11;94579.69;5075567;28;20200;-88
2022/01/30 10:59:09;;;;;;;26.07;13.23;;;;;;;17.07;27.20;94584.47;5074028;28;20232;-88
2022/01/30 11:01:37;;;;;;;25.03;12.77;;;;;;;17.38;26.81;94572.97;5076140;28;20197;-87
2022/01/30 11:04:06;;;;;;;25.93;12.73;;;;;;;16.66;27.37;94567.81;5072205;28;20715;-88
2022/01/30 11:06:40;;;;;;;31.13;13.47;;;;;;;16.67;27.58;94583.31;5072151;28;20582;-88
2022/01/30 11:09:14;;;;;;;25.73;13.10;;;;;;;16.91;27.09;94560.81;5070196;28;20208;-87
2022/01/30 11:11:49;;;;;;;24.70;13.60;;;;;;;16.21;27.43;94550.03;5065044;28;20199;-79
2022/01/30 11:14:20;;;;;;;32.10;14.37;;;;;;;15.76;28.63;94525.13;5066552;28;20202;-84
2022/01/30 11:16:59;;;;;;;25.73;13.97;;;;;;;15.25;29.22;94523.97;5072066;28;20197;-83
2022/01/30 11:19:28;;;;;;;32.60;14.10;;;;;;;15.67;29.19;94529.25;5078507;28;20205;-84
2022/01/30 11:22:02;;;;;;;35.80;14.83;;;;;;;15.96;28.96;94528.94;5073128;28;20349;-82
2022/01/30 11:24:36;;;;;;;26.83;14.07;;;;;;;16.77;28.48;94533.47;5079161;28;20229;-83
2022/01/30 11:27:08;;;;;;;33.67;14.13;;;;;;;17.16;27.49;94541.69;5069121;28;20672;-84
2022/01/30 11:29:37;;;;;;;27.40;13.73;;;;;;;17.03;27.66;94532.47;5069766;28;20240;-84
2022/01/30 11:32:07;;;;;;;31.50;13.80;;;;;;;16.82;27.81;94537.97;5072716;28;20205;-82
2022/01/30 11:34:36;;;;;;;33.00;14.50;;;;;;;16.06;28.73;94531.59;5069928;28;20321;-82
2022/01/30 11:37:05;;;;;;;31.20;15.17;;;;;;;15.28;29.61;94535.75;5071165;28;20288;-86
2022/01/30 11:39:35;;;;;;;32.77;15.40;;;;;;;14.57;30.47;94521.22;5069190;28;20577;-81
2022/01/30 11:42:09;;;;;;;30.73;16.13;;;;;;;13.91;31.27;94509.16;5075749;28;20272;-82
2022/01/30 11:44:38;;;;;;;33.73;16.43;;;;;;;13.28;32.54;94499.91;5070953;28;20282;-81
2022/01/30 11:47:23;;;;;;;35.80;17.00;;;;;;;12.96;32.47;94491.78;5072034;28;20213;-81
2022/01/30 11:49:57;;;;;;;29.83;16.70;;;;;;;12.65;32.61;94486.31;5071902;28;20279;-81
2022/01/30 11:52:50;;;;;;;34.07;18.87;;;;;;;11.91;34.02;94475.81;5073667;28;20247;-81
2022/01/30 11:55:48;;;;;;;40.43;20.73;;;;;;;11.77;34.56;94471.91;5068720;28;20750;-82
2022/01/30 11:58:49;;;;;;;49.63;20.63;;;;;;;11.86;35.25;94462.69;5072590;28;20205;-83
2022/01/30 12:01:38;;;;;;;34.17;15.80;;;;;;;12.23;34.50;94460.56;5082904;28;20216;-81
2022/01/30 12:04:15;;;;;;;35.70;16.97;;;;;;;11.89;34.58;94472.63;5074090;28;20632;-83
2022/01/30 12:06:47;;;;;;;36.40;15.67;;;;;;;11.01;35.35;94463.41;5068570;28;20201;-82
2022/01/30 12:09:29;;;;;;;36.47;16.87;;;;;;;10.35;36.27;94476.59;5072716;28;20296;-81
2022/01/30 12:12:07;;;;;;;32.50;16.80;;;;;;;9.99;37.48;94475.59;5073763;28;20772;-76